sensor_id;sensor_type;location;lat;lon;timestamp;P1;durP1;ratioP1;P2;durP2;ratioP2
55641;SDS011;41509;53.108;6.100;2024-01-11T00:00:17;26.77;;;10.53;;
55641;SDS011;41509;53.108;6.100;2024-01-11T00:02:45;30.45;;;12.25;;
55641;SDS011;41509;53.108;6.100;2024-01-11T00:05:10;32.07;;;12.03;;
55641;SDS011;41509;53.108;6.100;2024-01-11T00:07:36;26.10;;;10.93;;
55641;SDS011;41509;53.108;6.100;2024-01-11T00:10:02;28.47;;;11.23;;
55641;SDS011;41509;53.108;6.100;2024-01-11T00:12:29;28.25;;;10.63;;
55641;SDS011;41509;53.108;6.100;2024-01-11T00:14:54;27.55;;;11.57;;
55641;SDS011;41509;53.108;6.100;2024-01-11T00:17:20;30.13;;;12.00;;
55641;SDS011;41509;53.108;6.100;2024-01-11T00:19:46;27.77;;;11.93;;
55641;SDS011;41509;53.108;6.100;2024-01-11T00:22:11;25.97;;;10.63;;
55641;SDS011;41509;53.108;6.100;2024-01-11T00:24:37;26.73;;;12.00;;
55641;SDS011;41509;53.108;6.100;2024-01-11T00:27:02;26.97;;;10.77;;
55641;SDS011;41509;53.108;6.100;2024-01-11T00:29:28;33.77;;;12.13;;
55641;SDS011;41509;53.108;6.100;2024-01-11T00:31:54;24.03;;;11.20;;
55641;SDS011;41509;53.108;6.100;2024-01-11T00:34:20;28.63;;;11.57;;
55641;SDS011;41509;53.108;6.100;2024-01-11T00:36:46;29.55;;;12.68;;
55641;SDS011;41509;53.108;6.100;2024-01-11T00:39:12;33.63;;;13.05;;
55641;SDS011;41509;53.108;6.100;2024-01-11T00:41:38;31.83;;;12.33;;
55641;SDS011;41509;53.108;6.100;2024-01-11T00:44:04;32.00;;;12.07;;
55641;SDS011;41509;53.108;6.100;2024-01-11T00:46:29;25.40;;;11.93;;
55641;SDS011;41509;53.108;6.100;2024-01-11T00:48:55;28.00;;;11.70;;
55641;SDS011;41509;53.108;6.100;2024-01-11T00:51:21;30.37;;;12.30;;
55641;SDS011;41509;53.108;6.100;2024-01-11T00:53:46;26.87;;;11.17;;
55641;SDS011;41509;53.108;6.100;2024-01-11T00:56:18;31.20;;;12.63;;
55641;SDS011;41509;53.108;6.100;2024-01-11T00:58:45;28.90;;;11.55;;
55641;SDS011;41509;53.108;6.100;2024-01-11T01:01:13;28.00;;;13.00;;
55641;SDS011;41509;53.108;6.100;2024-01-11T01:03:39;27.63;;;12.40;;
55641;SDS011;41509;53.108;6.100;2024-01-11T01:06:04;26.77;;;11.75;;
55641;SDS011;41509;53.108;6.100;2024-01-11T01:08:31;27.05;;;12.20;;
55641;SDS011;41509;53.108;6.100;2024-01-11T01:10:56;29.40;;;12.27;;
55641;SDS011;41509;53.108;6.100;2024-01-11T01:13:22;29.20;;;11.70;;
55641;SDS011;41509;53.108;6.100;2024-01-11T01:15:48;33.90;;;11.47;;
55641;SDS011;41509;53.108;6.100;2024-01-11T01:18:14;29.90;;;12.67;;
55641;SDS011;41509;53.108;6.100;2024-01-11T01:20:40;35.07;;;12.80;;
55641;SDS011;41509;53.108;6.100;2024-01-11T01:23:05;30.53;;;12.87;;
55641;SDS011;41509;53.108;6.100;2024-01-11T01:25:31;28.33;;;12.10;;
55641;SDS011;41509;53.108;6.100;2024-01-11T01:28:18;30.70;;;12.93;;
55641;SDS011;41509;53.108;6.100;2024-01-11T01:30:43;34.80;;;12.80;;
55641;SDS011;41509;53.108;6.100;2024-01-11T01:33:09;31.07;;;13.43;;
55641;SDS011;41509;53.108;6.100;2024-01-11T01:35:34;34.20;;;14.20;;
55641;SDS011;41509;53.108;6.100;2024-01-11T01:38:03;31.98;;;13.30;;
55641;SDS011;41509;53.108;6.100;2024-01-11T01:40:31;32.17;;;13.23;;
55641;SDS011;41509;53.108;6.100;2024-01-11T01:42:59;35.50;;;13.27;;
55641;SDS011;41509;53.108;6.100;2024-01-11T01:45:25;29.92;;;12.00;;
55641;SDS011;41509;53.108;6.100;2024-01-11T01:47:50;33.63;;;13.63;;
55641;SDS011;41509;53.108;6.100;2024-01-11T01:50:16;26.70;;;12.30;;
55641;SDS011;41509;53.108;6.100;2024-01-11T01:52:43;29.83;;;12.05;;
55641;SDS011;41509;53.108;6.100;2024-01-11T01:55:09;34.78;;;14.10;;
55641;SDS011;41509;53.108;6.100;2024-01-11T01:57:37;33.42;;;13.32;;
55641;SDS011;41509;53.108;6.100;2024-01-11T02:00:12;30.17;;;13.60;;
55641;SDS011;41509;53.108;6.100;2024-01-11T02:02:44;33.33;;;14.60;;
55641;SDS011;41509;53.108;6.100;2024-01-11T02:05:13;36.13;;;13.55;;
55641;SDS011;41509;53.108;6.100;2024-01-11T02:07:40;30.70;;;13.27;;
55641;SDS011;41509;53.108;6.100;2024-01-11T02:10:06;32.40;;;12.88;;
55641;SDS011;41509;53.108;6.100;2024-01-11T02:12:33;35.30;;;14.02;;
55641;SDS011;41509;53.108;6.100;2024-01-11T02:15:00;30.73;;;13.38;;
55641;SDS011;41509;53.108;6.100;2024-01-11T02:17:28;32.90;;;13.85;;
55641;SDS011;41509;53.108;6.100;2024-01-11T02:19:57;34.42;;;13.90;;
55641;SDS011;41509;53.108;6.100;2024-01-11T02:22:29;37.77;;;15.67;;
55641;SDS011;41509;53.108;6.100;2024-01-11T02:25:01;32.70;;;14.05;;
55641;SDS011;41509;53.108;6.100;2024-01-11T02:27:27;36.75;;;13.50;;
55641;SDS011;41509;53.108;6.100;2024-01-11T02:29:53;36.17;;;14.38;;
55641;SDS011;41509;53.108;6.100;2024-01-11T02:32:18;37.07;;;13.90;;
55641;SDS011;41509;53.108;6.100;2024-01-11T02:34:44;34.33;;;14.48;;
55641;SDS011;41509;53.108;6.100;2024-01-11T02:37:11;39.92;;;13.88;;
55641;SDS011;41509;53.108;6.100;2024-01-11T02:39:40;36.92;;;15.25;;
55641;SDS011;41509;53.108;6.100;2024-01-11T02:42:11;34.67;;;13.05;;
55641;SDS011;41509;53.108;6.100;2024-01-11T02:44:36;33.13;;;13.23;;
55641;SDS011;41509;53.108;6.100;2024-01-11T02:47:02;32.07;;;13.37;;
55641;SDS011;41509;53.108;6.100;2024-01-11T02:49:28;36.73;;;15.47;;
55641;SDS011;41509;53.108;6.100;2024-01-11T02:51:56;37.55;;;14.27;;
55641;SDS011;41509;53.108;6.100;2024-01-11T02:54:22;34.70;;;14.10;;
55641;SDS011;41509;53.108;6.100;2024-01-11T02:56:47;32.17;;;13.53;;
55641;SDS011;41509;53.108;6.100;2024-01-11T02:59:13;34.97;;;14.07;;
55641;SDS011;41509;53.108;6.100;2024-01-11T03:01:39;35.53;;;14.30;;
55641;SDS011;41509;53.108;6.100;2024-01-11T03:04:05;34.60;;;13.15;;
55641;SDS011;41509;53.108;6.100;2024-01-11T03:06:31;31.00;;;13.83;;
55641;SDS011;41509;53.108;6.100;2024-01-11T03:08:56;35.80;;;15.03;;
55641;SDS011;41509;53.108;6.100;2024-01-11T03:11:22;31.03;;;13.20;;
55641;SDS011;41509;53.108;6.100;2024-01-11T03:13:47;34.77;;;13.60;;
55641;SDS011;41509;53.108;6.100;2024-01-11T03:16:13;33.17;;;13.73;;
55641;SDS011;41509;53.108;6.100;2024-01-11T03:18:39;34.17;;;13.20;;
55641;SDS011;41509;53.108;6.100;2024-01-11T03:21:04;39.05;;;14.77;;
55641;SDS011;41509;53.108;6.100;2024-01-11T03:23:30;38.00;;;14.13;;
55641;SDS011;41509;53.108;6.100;2024-01-11T03:25:58;36.28;;;14.10;;
55641;SDS011;41509;53.108;6.100;2024-01-11T03:28:24;39.20;;;13.93;;
55641;SDS011;41509;53.108;6.100;2024-01-11T03:30:49;36.03;;;14.80;;
55641;SDS011;41509;53.108;6.100;2024-01-11T03:33:21;37.40;;;14.73;;
55641;SDS011;41509;53.108;6.100;2024-01-11T03:35:46;28.97;;;13.13;;
55641;SDS011;41509;53.108;6.100;2024-01-11T03:38:14;37.47;;;13.80;;
55641;SDS011;41509;53.108;6.100;2024-01-11T03:40:40;29.50;;;12.88;;
55641;SDS011;41509;53.108;6.100;2024-01-11T03:43:05;29.67;;;12.57;;
55641;SDS011;41509;53.108;6.100;2024-01-11T03:45:31;35.43;;;14.07;;
55641;SDS011;41509;53.108;6.100;2024-01-11T03:47:57;32.63;;;14.67;;
55641;SDS011;41509;53.108;6.100;2024-01-11T03:50:25;40.55;;;15.35;;
55641;SDS011;41509;53.108;6.100;2024-01-11T03:52:51;36.47;;;14.43;;
55641;SDS011;41509;53.108;6.100;2024-01-11T03:55:19;36.37;;;13.73;;
55641;SDS011;41509;53.108;6.100;2024-01-11T03:57:45;34.72;;;13.60;;
55641;SDS011;41509;53.108;6.100;2024-01-11T04:00:11;37.60;;;14.20;;
55641;SDS011;41509;53.108;6.100;2024-01-11T04:02:37;39.13;;;15.40;;
55641;SDS011;41509;53.108;6.100;2024-01-11T04:05:03;37.27;;;14.23;;
55641;SDS011;41509;53.108;6.100;2024-01-11T04:07:34;36.30;;;13.68;;
55641;SDS011;41509;53.108;6.100;2024-01-11T04:10:00;35.45;;;15.07;;
55641;SDS011;41509;53.108;6.100;2024-01-11T04:12:26;36.70;;;13.93;;
55641;SDS011;41509;53.108;6.100;2024-01-11T04:14:51;33.77;;;15.00;;
55641;SDS011;41509;53.108;6.100;2024-01-11T04:17:17;35.03;;;14.17;;
55641;SDS011;41509;53.108;6.100;2024-01-11T04:19:42;33.70;;;14.73;;
55641;SDS011;41509;53.108;6.100;2024-01-11T04:22:08;33.47;;;12.70;;
55641;SDS011;41509;53.108;6.100;2024-01-11T04:24:34;37.70;;;14.68;;
55641;SDS011;41509;53.108;6.100;2024-01-11T04:27:00;33.93;;;14.27;;
55641;SDS011;41509;53.108;6.100;2024-01-11T04:29:25;42.50;;;14.93;;
55641;SDS011;41509;53.108;6.100;2024-01-11T04:31:51;38.97;;;14.10;;
55641;SDS011;41509;53.108;6.100;2024-01-11T04:34:16;39.70;;;14.17;;
55641;SDS011;41509;53.108;6.100;2024-01-11T04:36:42;51.53;;;17.07;;
55641;SDS011;41509;53.108;6.100;2024-01-11T04:39:08;41.67;;;15.10;;
55641;SDS011;41509;53.108;6.100;2024-01-11T04:41:36;43.30;;;15.40;;
55641;SDS011;41509;53.108;6.100;2024-01-11T04:44:02;45.17;;;16.17;;
55641;SDS011;41509;53.108;6.100;2024-01-11T04:46:28;37.70;;;15.48;;
55641;SDS011;41509;53.108;6.100;2024-01-11T04:48:53;35.90;;;14.33;;
55641;SDS011;41509;53.108;6.100;2024-01-11T04:51:19;39.37;;;14.93;;
55641;SDS011;41509;53.108;6.100;2024-01-11T04:53:45;46.30;;;16.30;;
55641;SDS011;41509;53.108;6.100;2024-01-11T04:56:12;41.72;;;15.48;;
55641;SDS011;41509;53.108;6.100;2024-01-11T04:58:40;44.63;;;16.98;;
55641;SDS011;41509;53.108;6.100;2024-01-11T05:01:06;40.75;;;16.13;;
55641;SDS011;41509;53.108;6.100;2024-01-11T05:03:32;40.05;;;17.05;;
55641;SDS011;41509;53.108;6.100;2024-01-11T05:05:58;50.90;;;18.60;;
55641;SDS011;41509;53.108;6.100;2024-01-11T05:08:27;45.58;;;17.17;;
55641;SDS011;41509;53.108;6.100;2024-01-11T05:10:53;40.20;;;15.18;;
55641;SDS011;41509;53.108;6.100;2024-01-11T05:13:19;41.90;;;15.47;;
55641;SDS011;41509;53.108;6.100;2024-01-11T05:15:45;40.97;;;15.27;;
55641;SDS011;41509;53.108;6.100;2024-01-11T05:18:11;34.87;;;14.90;;
55641;SDS011;41509;53.108;6.100;2024-01-11T05:20:37;36.60;;;14.63;;
55641;SDS011;41509;53.108;6.100;2024-01-11T05:23:03;47.90;;;16.08;;
55641;SDS011;41509;53.108;6.100;2024-01-11T05:25:29;37.60;;;15.25;;
55641;SDS011;41509;53.108;6.100;2024-01-11T05:28:04;43.20;;;16.35;;
55641;SDS011;41509;53.108;6.100;2024-01-11T05:30:33;36.88;;;15.00;;
55641;SDS011;41509;53.108;6.100;2024-01-11T05:33:01;42.33;;;16.08;;
55641;SDS011;41509;53.108;6.100;2024-01-11T05:35:29;33.17;;;13.93;;
55641;SDS011;41509;53.108;6.100;2024-01-11T05:37:54;38.27;;;14.70;;
55641;SDS011;41509;53.108;6.100;2024-01-11T05:40:20;41.83;;;15.50;;
55641;SDS011;41509;53.108;6.100;2024-01-11T05:42:46;41.10;;;15.77;;
55641;SDS011;41509;53.108;6.100;2024-01-11T05:45:12;38.83;;;16.57;;
55641;SDS011;41509;53.108;6.100;2024-01-11T05:47:37;38.10;;;15.63;;
55641;SDS011;41509;53.108;6.100;2024-01-11T05:50:06;37.95;;;13.82;;
55641;SDS011;41509;53.108;6.100;2024-01-11T05:52:38;35.25;;;15.57;;
55641;SDS011;41509;53.108;6.100;2024-01-11T05:55:03;39.17;;;15.02;;
55641;SDS011;41509;53.108;6.100;2024-01-11T05:57:30;38.83;;;15.68;;
55641;SDS011;41509;53.108;6.100;2024-01-11T05:59:55;37.80;;;15.20;;
55641;SDS011;41509;53.108;6.100;2024-01-11T06:02:21;44.57;;;16.50;;
55641;SDS011;41509;53.108;6.100;2024-01-11T06:04:50;42.88;;;18.15;;
55641;SDS011;41509;53.108;6.100;2024-01-11T06:07:16;40.08;;;16.33;;
55641;SDS011;41509;53.108;6.100;2024-01-11T06:09:42;39.17;;;16.30;;
55641;SDS011;41509;53.108;6.100;2024-01-11T06:12:10;42.92;;;17.23;;
55641;SDS011;41509;53.108;6.100;2024-01-11T06:14:36;41.37;;;17.07;;
55641;SDS011;41509;53.108;6.100;2024-01-11T06:17:01;40.37;;;16.57;;
55641;SDS011;41509;53.108;6.100;2024-01-11T06:19:27;41.73;;;15.80;;
55641;SDS011;41509;53.108;6.100;2024-01-11T06:21:53;39.07;;;15.20;;
55641;SDS011;41509;53.108;6.100;2024-01-11T06:24:19;41.90;;;15.67;;
55641;SDS011;41509;53.108;6.100;2024-01-11T06:26:47;40.13;;;15.20;;
55641;SDS011;41509;53.108;6.100;2024-01-11T06:29:13;38.95;;;14.93;;
55641;SDS011;41509;53.108;6.100;2024-01-11T06:31:41;38.08;;;15.18;;
55641;SDS011;41509;53.108;6.100;2024-01-11T06:34:07;36.30;;;15.23;;
55641;SDS011;41509;53.108;6.100;2024-01-11T06:36:33;37.10;;;15.47;;
55641;SDS011;41509;53.108;6.100;2024-01-11T06:38:58;34.63;;;14.17;;
55641;SDS011;41509;53.108;6.100;2024-01-11T06:41:24;40.63;;;17.40;;
55641;SDS011;41509;53.108;6.100;2024-01-11T06:43:50;38.50;;;15.87;;
55641;SDS011;41509;53.108;6.100;2024-01-11T06:46:19;44.50;;;14.87;;
55641;SDS011;41509;53.108;6.100;2024-01-11T06:48:48;35.95;;;14.02;;
55641;SDS011;41509;53.108;6.100;2024-01-11T06:51:15;36.97;;;13.97;;
55641;SDS011;41509;53.108;6.100;2024-01-11T06:53:43;36.75;;;14.38;;
55641;SDS011;41509;53.108;6.100;2024-01-11T06:56:16;34.25;;;15.18;;
55641;SDS011;41509;53.108;6.100;2024-01-11T06:58:43;33.90;;;15.60;;
55641;SDS011;41509;53.108;6.100;2024-01-11T07:01:09;38.90;;;15.30;;
55641;SDS011;41509;53.108;6.100;2024-01-11T07:03:35;35.58;;;16.17;;
55641;SDS011;41509;53.108;6.100;2024-01-11T07:06:01;39.10;;;15.63;;
55641;SDS011;41509;53.108;6.100;2024-01-11T07:10:56;37.83;;;14.38;;
55641;SDS011;41509;53.108;6.100;2024-01-11T07:13:22;40.78;;;16.48;;
55641;SDS011;41509;53.108;6.100;2024-01-11T07:15:48;40.42;;;16.98;;
55641;SDS011;41509;53.108;6.100;2024-01-11T07:18:14;36.53;;;15.13;;
55641;SDS011;41509;53.108;6.100;2024-01-11T07:20:40;34.08;;;14.73;;
55641;SDS011;41509;53.108;6.100;2024-01-11T07:23:05;38.42;;;16.75;;
55641;SDS011;41509;53.108;6.100;2024-01-11T07:25:31;37.10;;;17.57;;
55641;SDS011;41509;53.108;6.100;2024-01-11T07:28:00;35.10;;;15.50;;
55641;SDS011;41509;53.108;6.100;2024-01-11T07:30:26;42.08;;;16.58;;
55641;SDS011;41509;53.108;6.100;2024-01-11T07:32:51;37.23;;;15.77;;
55641;SDS011;41509;53.108;6.100;2024-01-11T07:37:45;39.47;;;16.02;;
55641;SDS011;41509;53.108;6.100;2024-01-11T07:40:10;48.63;;;18.70;;
55641;SDS011;41509;53.108;6.100;2024-01-11T07:42:39;41.10;;;17.47;;
55641;SDS011;41509;53.108;6.100;2024-01-11T07:45:06;42.13;;;17.92;;
55641;SDS011;41509;53.108;6.100;2024-01-11T07:47:32;44.53;;;19.25;;
55641;SDS011;41509;53.108;6.100;2024-01-11T07:49:58;43.80;;;17.80;;
55641;SDS011;41509;53.108;6.100;2024-01-11T07:52:24;40.92;;;17.90;;
55641;SDS011;41509;53.108;6.100;2024-01-11T07:54:50;42.03;;;19.70;;
55641;SDS011;41509;53.108;6.100;2024-01-11T07:57:15;36.70;;;16.23;;
55641;SDS011;41509;53.108;6.100;2024-01-11T07:59:41;39.50;;;16.53;;
55641;SDS011;41509;53.108;6.100;2024-01-11T08:02:06;34.87;;;15.17;;
55641;SDS011;41509;53.108;6.100;2024-01-11T08:04:32;36.17;;;16.97;;
55641;SDS011;41509;53.108;6.100;2024-01-11T08:06:58;41.05;;;16.60;;
55641;SDS011;41509;53.108;6.100;2024-01-11T08:09:27;35.92;;;15.43;;
55641;SDS011;41509;53.108;6.100;2024-01-11T08:11:53;38.25;;;16.27;;
55641;SDS011;41509;53.108;6.100;2024-01-11T08:14:22;35.70;;;17.63;;
55641;SDS011;41509;53.108;6.100;2024-01-11T08:16:49;37.60;;;15.68;;
55641;SDS011;41509;53.108;6.100;2024-01-11T08:19:15;35.33;;;15.03;;
55641;SDS011;41509;53.108;6.100;2024-01-11T08:24:07;37.97;;;15.07;;
55641;SDS011;41509;53.108;6.100;2024-01-11T08:26:33;39.00;;;15.50;;
55641;SDS011;41509;53.108;6.100;2024-01-11T08:28:59;40.53;;;16.55;;
55641;SDS011;41509;53.108;6.100;2024-01-11T08:31:24;37.73;;;15.63;;
55641;SDS011;41509;53.108;6.100;2024-01-11T08:33:50;37.93;;;15.20;;
55641;SDS011;41509;53.108;6.100;2024-01-11T08:36:16;39.97;;;16.43;;
55641;SDS011;41509;53.108;6.100;2024-01-11T08:38:42;39.53;;;17.17;;
55641;SDS011;41509;53.108;6.100;2024-01-11T08:41:07;39.23;;;16.27;;
55641;SDS011;41509;53.108;6.100;2024-01-11T08:43:33;38.13;;;16.47;;
55641;SDS011;41509;53.108;6.100;2024-01-11T08:45:59;38.90;;;17.80;;
55641;SDS011;41509;53.108;6.100;2024-01-11T08:48:25;37.23;;;16.23;;
55641;SDS011;41509;53.108;6.100;2024-01-11T08:50:53;41.00;;;16.35;;
55641;SDS011;41509;53.108;6.100;2024-01-11T08:53:19;43.47;;;16.43;;
55641;SDS011;41509;53.108;6.100;2024-01-11T08:55:45;45.03;;;16.83;;
55641;SDS011;41509;53.108;6.100;2024-01-11T08:58:10;41.13;;;18.27;;
55641;SDS011;41509;53.108;6.100;2024-01-11T09:00:37;40.50;;;17.27;;
55641;SDS011;41509;53.108;6.100;2024-01-11T09:03:03;37.25;;;16.02;;
55641;SDS011;41509;53.108;6.100;2024-01-11T09:05:29;40.03;;;15.85;;
55641;SDS011;41509;53.108;6.100;2024-01-11T09:07:54;43.73;;;16.77;;
55641;SDS011;41509;53.108;6.100;2024-01-11T09:10:20;40.30;;;15.00;;
55641;SDS011;41509;53.108;6.100;2024-01-11T09:12:46;39.63;;;16.27;;
55641;SDS011;41509;53.108;6.100;2024-01-11T09:15:12;36.43;;;15.90;;
55641;SDS011;41509;53.108;6.100;2024-01-11T09:17:37;40.93;;;16.50;;
55641;SDS011;41509;53.108;6.100;2024-01-11T09:20:04;36.72;;;15.30;;
55641;SDS011;41509;53.108;6.100;2024-01-11T09:22:30;32.65;;;14.45;;
55641;SDS011;41509;53.108;6.100;2024-01-11T09:24:55;36.83;;;15.40;;
55641;SDS011;41509;53.108;6.100;2024-01-11T09:27:21;36.33;;;15.03;;
55641;SDS011;41509;53.108;6.100;2024-01-11T09:29:47;39.60;;;17.25;;
55641;SDS011;41509;53.108;6.100;2024-01-11T09:32:13;41.97;;;16.60;;
55641;SDS011;41509;53.108;6.100;2024-01-11T09:34:39;33.75;;;14.82;;
55641;SDS011;41509;53.108;6.100;2024-01-11T09:37:05;36.47;;;15.97;;
55641;SDS011;41509;53.108;6.100;2024-01-11T09:39:30;30.43;;;14.53;;
55641;SDS011;41509;53.108;6.100;2024-01-11T09:42:04;34.50;;;15.70;;
55641;SDS011;41509;53.108;6.100;2024-01-11T09:44:34;36.03;;;16.10;;
55641;SDS011;41509;53.108;6.100;2024-01-11T09:47:02;37.25;;;15.57;;
55641;SDS011;41509;53.108;6.100;2024-01-11T09:49:31;32.40;;;15.95;;
55641;SDS011;41509;53.108;6.100;2024-01-11T09:51:58;42.42;;;17.38;;
55641;SDS011;41509;53.108;6.100;2024-01-11T09:54:26;32.97;;;14.77;;
55641;SDS011;41509;53.108;6.100;2024-01-11T09:56:52;34.37;;;16.63;;
55641;SDS011;41509;53.108;6.100;2024-01-11T09:59:20;36.33;;;14.93;;
55641;SDS011;41509;53.108;6.100;2024-01-11T10:01:49;37.30;;;15.18;;
55641;SDS011;41509;53.108;6.100;2024-01-11T10:04:15;33.85;;;14.15;;
55641;SDS011;41509;53.108;6.100;2024-01-11T10:06:41;41.95;;;15.68;;
55641;SDS011;41509;53.108;6.100;2024-01-11T10:09:08;34.45;;;15.82;;
55641;SDS011;41509;53.108;6.100;2024-01-11T10:11:34;33.15;;;14.57;;
55641;SDS011;41509;53.108;6.100;2024-01-11T10:14:00;38.17;;;15.20;;
55641;SDS011;41509;53.108;6.100;2024-01-11T10:16:27;35.47;;;15.60;;
55641;SDS011;41509;53.108;6.100;2024-01-11T10:18:54;31.98;;;14.55;;
55641;SDS011;41509;53.108;6.100;2024-01-11T10:21:20;30.70;;;14.93;;
55641;SDS011;41509;53.108;6.100;2024-01-11T10:23:46;34.17;;;14.30;;
55641;SDS011;41509;53.108;6.100;2024-01-11T10:26:16;34.65;;;13.82;;
55641;SDS011;41509;53.108;6.100;2024-01-11T10:28:44;32.40;;;13.45;;
55641;SDS011;41509;53.108;6.100;2024-01-11T10:31:10;34.40;;;15.80;;
55641;SDS011;41509;53.108;6.100;2024-01-11T10:33:36;29.07;;;14.37;;
55641;SDS011;41509;53.108;6.100;2024-01-11T10:36:02;30.38;;;13.30;;
55641;SDS011;41509;53.108;6.100;2024-01-11T10:38:30;36.40;;;14.52;;
55641;SDS011;41509;53.108;6.100;2024-01-11T10:40:56;33.53;;;14.52;;
55641;SDS011;41509;53.108;6.100;2024-01-11T10:43:26;33.38;;;15.63;;
55641;SDS011;41509;53.108;6.100;2024-01-11T10:45:54;32.40;;;15.23;;
55641;SDS011;41509;53.108;6.100;2024-01-11T10:48:29;33.45;;;13.93;;
55641;SDS011;41509;53.108;6.100;2024-01-11T10:50:58;29.55;;;13.75;;
55641;SDS011;41509;53.108;6.100;2024-01-11T10:56:09;31.83;;;13.38;;
55641;SDS011;41509;53.108;6.100;2024-01-11T10:58:37;29.30;;;11.77;;
55641;SDS011;41509;53.108;6.100;2024-01-11T11:01:10;33.53;;;14.38;;
55641;SDS011;41509;53.108;6.100;2024-01-11T11:03:36;29.95;;;12.93;;
55641;SDS011;41509;53.108;6.100;2024-01-11T11:06:03;28.80;;;12.70;;
55641;SDS011;41509;53.108;6.100;2024-01-11T11:08:33;30.08;;;12.60;;
55641;SDS011;41509;53.108;6.100;2024-01-11T11:11:01;27.05;;;12.90;;
55641;SDS011;41509;53.108;6.100;2024-01-11T11:13:31;30.73;;;13.48;;
55641;SDS011;41509;53.108;6.100;2024-01-11T11:15:59;29.02;;;12.98;;
55641;SDS011;41509;53.108;6.100;2024-01-11T11:18:27;26.20;;;12.93;;
55641;SDS011;41509;53.108;6.100;2024-01-11T11:20:53;33.13;;;12.53;;
55641;SDS011;41509;53.108;6.100;2024-01-11T11:23:19;34.38;;;13.48;;
55641;SDS011;41509;53.108;6.100;2024-01-11T11:25:45;23.73;;;11.30;;
55641;SDS011;41509;53.108;6.100;2024-01-11T11:28:12;25.13;;;12.10;;
55641;SDS011;41509;53.108;6.100;2024-01-11T11:30:43;25.08;;;11.85;;
55641;SDS011;41509;53.108;6.100;2024-01-11T11:35:40;27.40;;;13.43;;
55641;SDS011;41509;53.108;6.100;2024-01-11T11:38:07;22.67;;;11.02;;
55641;SDS011;41509;53.108;6.100;2024-01-11T11:40:41;25.95;;;12.23;;
55641;SDS011;41509;53.108;6.100;2024-01-11T11:43:10;24.65;;;12.07;;
55641;SDS011;41509;53.108;6.100;2024-01-11T11:45:36;24.53;;;12.37;;
55641;SDS011;41509;53.108;6.100;2024-01-11T11:48:27;24.63;;;11.45;;
55641;SDS011;41509;53.108;6.100;2024-01-11T11:51:10;22.95;;;10.45;;
55641;SDS011;41509;53.108;6.100;2024-01-11T11:53:37;27.92;;;11.23;;
55641;SDS011;41509;53.108;6.100;2024-01-11T11:56:08;20.50;;;10.23;;
55641;SDS011;41509;53.108;6.100;2024-01-11T11:58:35;24.88;;;11.85;;
55641;SDS011;41509;53.108;6.100;2024-01-11T12:01:02;23.17;;;10.95;;
55641;SDS011;41509;53.108;6.100;2024-01-11T12:03:32;24.50;;;10.98;;
55641;SDS011;41509;53.108;6.100;2024-01-11T12:06:02;22.08;;;10.15;;
55641;SDS011;41509;53.108;6.100;2024-01-11T12:08:29;24.67;;;11.18;;
55641;SDS011;41509;53.108;6.100;2024-01-11T12:10:56;22.25;;;10.73;;
55641;SDS011;41509;53.108;6.100;2024-01-11T12:13:22;26.30;;;10.50;;
55641;SDS011;41509;53.108;6.100;2024-01-11T12:15:49;22.30;;;10.48;;
55641;SDS011;41509;53.108;6.100;2024-01-11T12:18:14;23.10;;;11.00;;
55641;SDS011;41509;53.108;6.100;2024-01-11T12:20:40;22.07;;;10.03;;
55641;SDS011;41509;53.108;6.100;2024-01-11T12:23:06;22.58;;;11.05;;
55641;SDS011;41509;53.108;6.100;2024-01-11T12:25:32;23.58;;;9.48;;
55641;SDS011;41509;53.108;6.100;2024-01-11T12:27:58;28.23;;;11.03;;
55641;SDS011;41509;53.108;6.100;2024-01-11T12:30:27;25.07;;;10.87;;
55641;SDS011;41509;53.108;6.100;2024-01-11T12:32:54;22.92;;;10.85;;
55641;SDS011;41509;53.108;6.100;2024-01-11T12:35:23;22.17;;;9.95;;
55641;SDS011;41509;53.108;6.100;2024-01-11T12:37:53;24.17;;;11.05;;
55641;SDS011;41509;53.108;6.100;2024-01-11T12:40:19;28.50;;;10.18;;
55641;SDS011;41509;53.108;6.100;2024-01-11T12:42:45;22.33;;;10.20;;
55641;SDS011;41509;53.108;6.100;2024-01-11T12:45:10;22.53;;;9.53;;
55641;SDS011;41509;53.108;6.100;2024-01-11T12:47:36;21.17;;;10.90;;
55641;SDS011;41509;53.108;6.100;2024-01-11T12:52:28;21.33;;;9.10;;
55641;SDS011;41509;53.108;6.100;2024-01-11T12:54:55;19.08;;;9.40;;
55641;SDS011;41509;53.108;6.100;2024-01-11T12:57:21;22.67;;;9.40;;
55641;SDS011;41509;53.108;6.100;2024-01-11T12:59:47;20.10;;;9.43;;
55641;SDS011;41509;53.108;6.100;2024-01-11T13:02:14;21.30;;;9.73;;
55641;SDS011;41509;53.108;6.100;2024-01-11T13:04:42;19.58;;;9.02;;
55641;SDS011;41509;53.108;6.100;2024-01-11T13:07:10;20.08;;;9.38;;
55641;SDS011;41509;53.108;6.100;2024-01-11T13:09:37;23.58;;;9.15;;
55641;SDS011;41509;53.108;6.100;2024-01-11T13:12:03;19.73;;;8.98;;
55641;SDS011;41509;53.108;6.100;2024-01-11T13:14:29;21.35;;;9.43;;
55641;SDS011;41509;53.108;6.100;2024-01-11T13:19:22;23.98;;;9.13;;
55641;SDS011;41509;53.108;6.100;2024-01-11T13:21:48;17.03;;;7.53;;
55641;SDS011;41509;53.108;6.100;2024-01-11T13:24:13;20.93;;;8.90;;
55641;SDS011;41509;53.108;6.100;2024-01-11T13:26:39;17.75;;;8.38;;
55641;SDS011;41509;53.108;6.100;2024-01-11T13:29:06;20.90;;;8.63;;
55641;SDS011;41509;53.108;6.100;2024-01-11T13:31:32;17.25;;;7.70;;
55641;SDS011;41509;53.108;6.100;2024-01-11T13:33:59;17.27;;;6.97;;
55641;SDS011;41509;53.108;6.100;2024-01-11T13:36:25;16.42;;;7.40;;
55641;SDS011;41509;53.108;6.100;2024-01-11T13:38:52;16.65;;;7.53;;
55641;SDS011;41509;53.108;6.100;2024-01-11T13:41:18;18.80;;;8.85;;
55641;SDS011;41509;53.108;6.100;2024-01-11T13:43:44;22.05;;;8.50;;
55641;SDS011;41509;53.108;6.100;2024-01-11T13:46:11;21.55;;;8.52;;
55641;SDS011;41509;53.108;6.100;2024-01-11T13:48:42;19.48;;;8.35;;
55641;SDS011;41509;53.108;6.100;2024-01-11T13:51:08;16.85;;;8.48;;
55641;SDS011;41509;53.108;6.100;2024-01-11T13:53:38;19.25;;;8.73;;
55641;SDS011;41509;53.108;6.100;2024-01-11T13:56:04;19.13;;;8.30;;
55641;SDS011;41509;53.108;6.100;2024-01-11T13:58:31;17.15;;;8.15;;
55641;SDS011;41509;53.108;6.100;2024-01-11T14:00:57;20.55;;;8.88;;
55641;SDS011;41509;53.108;6.100;2024-01-11T14:03:23;19.85;;;8.88;;
55641;SDS011;41509;53.108;6.100;2024-01-11T14:05:49;26.30;;;11.02;;
55641;SDS011;41509;53.108;6.100;2024-01-11T14:08:16;22.20;;;9.32;;
55641;SDS011;41509;53.108;6.100;2024-01-11T14:10:42;21.40;;;9.25;;
55641;SDS011;41509;53.108;6.100;2024-01-11T14:13:08;19.48;;;9.65;;
55641;SDS011;41509;53.108;6.100;2024-01-11T14:15:34;18.27;;;8.45;;
55641;SDS011;41509;53.108;6.100;2024-01-11T14:18:00;21.25;;;9.20;;
55641;SDS011;41509;53.108;6.100;2024-01-11T14:20:26;21.45;;;9.50;;
55641;SDS011;41509;53.108;6.100;2024-01-11T14:22:53;25.20;;;10.00;;
55641;SDS011;41509;53.108;6.100;2024-01-11T14:25:19;20.23;;;9.30;;
55641;SDS011;41509;53.108;6.100;2024-01-11T14:27:50;20.77;;;8.30;;
55641;SDS011;41509;53.108;6.100;2024-01-11T14:30:16;21.08;;;8.95;;
55641;SDS011;41509;53.108;6.100;2024-01-11T14:32:42;19.67;;;8.40;;
55641;SDS011;41509;53.108;6.100;2024-01-11T14:35:08;21.05;;;9.18;;
55641;SDS011;41509;53.108;6.100;2024-01-11T14:40:03;21.58;;;9.05;;